< < Back
Terminal Aerodrome Forecast


Current Version              Previous Versions:   1  2  3  4  5  6  7  8  9  

Terminal Aerodrome Forecast

185
FTUS44 KMOB 242300
TAFPNS
TAF
KPNS 242336Z 2500/2524 16004KT P6SM SCT130 BKN250
     FM251500 01013KT P6SM VCSH BKN130 BKN250
     FM251800 36011KT 6SM -SHRA OVC100=

Latest METAR

364
SAUS70 KWBC 252300 RRN
MTRPNS
METAR KPNS 252253Z 36003KT 10SM -RA OVC110 12/07 A3006 RMK AO2 RAE05B25
SLP182 P0000 T01220067


USA.gov is the U.S. government's official web portal to all federal, state and local government web resources and services.